sensor_id;sensor_type;location;lat;lon;timestamp;temperature;humidity
52509;DHT22;38420;53.150;6.370;2023-04-01T00:01:56;10.50;99.90
52509;DHT22;38420;53.150;6.370;2023-04-01T00:04:21;10.90;99.90
52509;DHT22;38420;53.150;6.370;2023-04-01T00:06:47;10.30;99.90
52509;DHT22;38420;53.150;6.370;2023-04-01T00:09:13;10.00;99.90
52509;DHT22;38420;53.150;6.370;2023-04-01T00:11:39;8.70;99.90
52509;DHT22;38420;53.150;6.370;2023-04-01T00:14:06;9.20;99.90
52509;DHT22;38420;53.150;6.370;2023-04-01T00:16:32;10.70;99.90
52509;DHT22;38420;53.150;6.370;2023-04-01T00:18:58;9.20;99.90
52509;DHT22;38420;53.150;6.370;2023-04-01T00:21:23;10.30;99.90
52509;DHT22;38420;53.150;6.370;2023-04-01T00:23:50;9.00;99.90
52509;DHT22;38420;53.150;6.370;2023-04-01T00:26:16;10.10;99.90
52509;DHT22;38420;53.150;6.370;2023-04-01T00:28:44;8.70;99.90
52509;DHT22;38420;53.150;6.370;2023-04-01T00:31:14;8.70;99.90
52509;DHT22;38420;53.150;6.370;2023-04-01T00:33:40;8.70;99.90
52509;DHT22;38420;53.150;6.370;2023-04-01T00:36:11;8.90;99.90
52509;DHT22;38420;53.150;6.370;2023-04-01T00:38:37;9.10;99.90
52509;DHT22;38420;53.150;6.370;2023-04-01T00:41:04;10.50;99.90
52509;DHT22;38420;53.150;6.370;2023-04-01T00:43:30;8.70;99.90
52509;DHT22;38420;53.150;6.370;2023-04-01T00:45:55;9.60;99.90
52509;DHT22;38420;53.150;6.370;2023-04-01T00:48:30;9.10;99.90
52509;DHT22;38420;53.150;6.370;2023-04-01T00:51:09;11.00;99.90
52509;DHT22;38420;53.150;6.370;2023-04-01T00:53:39;9.00;99.90
52509;DHT22;38420;53.150;6.370;2023-04-01T00:56:14;8.70;99.90
52509;DHT22;38420;53.150;6.370;2023-04-01T00:58:44;10.20;99.90
52509;DHT22;38420;53.150;6.370;2023-04-01T01:01:11;10.80;99.90
52509;DHT22;38420;53.150;6.370;2023-04-01T01:03:36;8.70;99.90
52509;DHT22;38420;53.150;6.370;2023-04-01T01:11:13;9.90;99.90
52509;DHT22;38420;53.150;6.370;2023-04-01T01:13:50;9.10;99.90
52509;DHT22;38420;53.150;6.370;2023-04-01T01:16:28;10.20;99.90
52509;DHT22;38420;53.150;6.370;2023-04-01T01:21:54;10.90;99.90
52509;DHT22;38420;53.150;6.370;2023-04-01T01:24:40;10.90;99.90
52509;DHT22;38420;53.150;6.370;2023-04-01T01:27:19;9.00;99.90
52509;DHT22;38420;53.150;6.370;2023-04-01T01:32:59;10.70;99.90
52509;DHT22;38420;53.150;6.370;2023-04-01T01:38:11;10.90;99.90
52509;DHT22;38420;53.150;6.370;2023-04-01T01:40:41;8.60;99.90
52509;DHT22;38420;53.150;6.370;2023-04-01T01:43:10;9.70;99.90
52509;DHT22;38420;53.150;6.370;2023-04-01T01:45:40;10.40;99.90
52509;DHT22;38420;53.150;6.370;2023-04-01T01:48:09;9.90;99.90
52509;DHT22;38420;53.150;6.370;2023-04-01T01:50:36;10.80;99.90
52509;DHT22;38420;53.150;6.370;2023-04-01T01:53:11;8.70;99.90
52509;DHT22;38420;53.150;6.370;2023-04-01T01:55:40;11.00;99.90
52509;DHT22;38420;53.150;6.370;2023-04-01T01:58:17;8.80;99.90
52509;DHT22;38420;53.150;6.370;2023-04-01T02:00:48;11.00;99.90
52509;DHT22;38420;53.150;6.370;2023-04-01T02:03:15;11.00;99.90
52509;DHT22;38420;53.150;6.370;2023-04-01T02:05:42;8.60;99.90
52509;DHT22;38420;53.150;6.370;2023-04-01T02:08:16;8.60;99.90
52509;DHT22;38420;53.150;6.370;2023-04-01T02:10:50;10.00;99.90
52509;DHT22;38420;53.150;6.370;2023-04-01T02:13:31;11.10;99.90
52509;DHT22;38420;53.150;6.370;2023-04-01T02:16:02;8.70;99.90
52509;DHT22;38420;53.150;6.370;2023-04-01T02:18:30;8.90;99.90
52509;DHT22;38420;53.150;6.370;2023-04-01T02:20:59;8.80;99.90
52509;DHT22;38420;53.150;6.370;2023-04-01T02:23:26;9.60;99.90
52509;DHT22;38420;53.150;6.370;2023-04-01T02:25:53;9.30;99.90
52509;DHT22;38420;53.150;6.370;2023-04-01T02:28:20;9.60;99.90
52509;DHT22;38420;53.150;6.370;2023-04-01T02:30:48;8.60;99.90
52509;DHT22;38420;53.150;6.370;2023-04-01T02:33:15;10.60;99.90
52509;DHT22;38420;53.150;6.370;2023-04-01T02:35:42;8.70;99.90
52509;DHT22;38420;53.150;6.370;2023-04-01T02:38:07;10.80;99.90
52509;DHT22;38420;53.150;6.370;2023-04-01T02:40:51;8.80;99.90
52509;DHT22;38420;53.150;6.370;2023-04-01T02:43:21;10.20;99.90
52509;DHT22;38420;53.150;6.370;2023-04-01T02:45:47;8.60;99.90
52509;DHT22;38420;53.150;6.370;2023-04-01T02:48:12;8.80;99.90
52509;DHT22;38420;53.150;6.370;2023-04-01T02:50:39;8.50;99.90
52509;DHT22;38420;53.150;6.370;2023-04-01T02:53:05;8.70;99.90
52509;DHT22;38420;53.150;6.370;2023-04-01T02:55:32;10.00;99.90
52509;DHT22;38420;53.150;6.370;2023-04-01T02:57:58;11.00;99.90
52509;DHT22;38420;53.150;6.370;2023-04-01T03:00:24;8.80;99.90
52509;DHT22;38420;53.150;6.370;2023-04-01T03:02:50;11.00;99.90
52509;DHT22;38420;53.150;6.370;2023-04-01T03:05:16;8.90;99.90
52509;DHT22;38420;53.150;6.370;2023-04-01T03:07:41;9.80;99.90
52509;DHT22;38420;53.150;6.370;2023-04-01T03:10:07;10.10;99.90
52509;DHT22;38420;53.150;6.370;2023-04-01T03:12:33;8.80;99.90
52509;DHT22;38420;53.150;6.370;2023-04-01T03:14:59;11.00;99.90
52509;DHT22;38420;53.150;6.370;2023-04-01T03:17:24;9.10;99.90
52509;DHT22;38420;53.150;6.370;2023-04-01T03:19:50;10.90;99.90
52509;DHT22;38420;53.150;6.370;2023-04-01T03:22:15;11.00;99.90
52509;DHT22;38420;53.150;6.370;2023-04-01T03:24:41;8.90;99.90
52509;DHT22;38420;53.150;6.370;2023-04-01T03:27:07;9.20;99.90
52509;DHT22;38420;53.150;6.370;2023-04-01T03:29:32;8.70;99.90
52509;DHT22;38420;53.150;6.370;2023-04-01T03:31:58;8.90;99.90
52509;DHT22;38420;53.150;6.370;2023-04-01T03:34:25;10.60;99.90
52509;DHT22;38420;53.150;6.370;2023-04-01T03:36:51;9.50;99.90
52509;DHT22;38420;53.150;6.370;2023-04-01T03:39:17;8.70;99.90
52509;DHT22;38420;53.150;6.370;2023-04-01T03:41:46;11.00;99.90
52509;DHT22;38420;53.150;6.370;2023-04-01T03:44:12;8.60;99.90
52509;DHT22;38420;53.150;6.370;2023-04-01T03:46:38;8.70;99.90
52509;DHT22;38420;53.150;6.370;2023-04-01T03:49:10;10.60;99.90
52509;DHT22;38420;53.150;6.370;2023-04-01T03:51:39;10.10;99.90
52509;DHT22;38420;53.150;6.370;2023-04-01T03:54:05;10.50;99.90
52509;DHT22;38420;53.150;6.370;2023-04-01T03:56:31;8.90;99.90
52509;DHT22;38420;53.150;6.370;2023-04-01T03:58:57;9.10;99.90
52509;DHT22;38420;53.150;6.370;2023-04-01T04:01:23;8.80;99.90
52509;DHT22;38420;53.150;6.370;2023-04-01T04:03:49;8.90;99.90
52509;DHT22;38420;53.150;6.370;2023-04-01T04:06:17;9.70;99.90
52509;DHT22;38420;53.150;6.370;2023-04-01T04:08:43;10.10;99.90
52509;DHT22;38420;53.150;6.370;2023-04-01T04:11:09;10.70;99.90
52509;DHT22;38420;53.150;6.370;2023-04-01T04:13:35;8.80;99.90
52509;DHT22;38420;53.150;6.370;2023-04-01T04:16:02;10.60;99.90
52509;DHT22;38420;53.150;6.370;2023-04-01T04:18:28;10.20;99.90
52509;DHT22;38420;53.150;6.370;2023-04-01T04:20:53;10.30;99.90
52509;DHT22;38420;53.150;6.370;2023-04-01T04:23:19;8.80;99.90
52509;DHT22;38420;53.150;6.370;2023-04-01T04:26:03;11.00;99.90
52509;DHT22;38420;53.150;6.370;2023-04-01T04:28:29;8.70;99.90
52509;DHT22;38420;53.150;6.370;2023-04-01T04:30:56;10.50;99.90
52509;DHT22;38420;53.150;6.370;2023-04-01T04:33:22;8.70;99.90
52509;DHT22;38420;53.150;6.370;2023-04-01T04:35:48;9.10;99.90
52509;DHT22;38420;53.150;6.370;2023-04-01T04:38:14;9.90;99.90
52509;DHT22;38420;53.150;6.370;2023-04-01T04:40:40;11.00;99.90
52509;DHT22;38420;53.150;6.370;2023-04-01T04:43:06;11.00;99.90
52509;DHT22;38420;53.150;6.370;2023-04-01T04:45:33;8.80;99.90
52509;DHT22;38420;53.150;6.370;2023-04-01T04:47:58;9.50;99.90
52509;DHT22;38420;53.150;6.370;2023-04-01T04:50:24;10.80;99.90
52509;DHT22;38420;53.150;6.370;2023-04-01T04:52:51;8.90;99.90
52509;DHT22;38420;53.150;6.370;2023-04-01T04:55:16;10.30;99.90
52509;DHT22;38420;53.150;6.370;2023-04-01T04:57:42;10.90;99.90
52509;DHT22;38420;53.150;6.370;2023-04-01T05:00:08;9.40;99.90
52509;DHT22;38420;53.150;6.370;2023-04-01T05:02:35;10.70;99.90
52509;DHT22;38420;53.150;6.370;2023-04-01T05:05:01;10.90;99.90
52509;DHT22;38420;53.150;6.370;2023-04-01T05:07:27;10.90;99.90
52509;DHT22;38420;53.150;6.370;2023-04-01T05:09:52;10.00;99.90
52509;DHT22;38420;53.150;6.370;2023-04-01T05:12:18;8.80;99.90
52509;DHT22;38420;53.150;6.370;2023-04-01T05:14:44;8.70;99.90
52509;DHT22;38420;53.150;6.370;2023-04-01T05:17:11;9.10;99.90
52509;DHT22;38420;53.150;6.370;2023-04-01T05:19:37;9.70;99.90
52509;DHT22;38420;53.150;6.370;2023-04-01T05:22:02;8.80;99.90
52509;DHT22;38420;53.150;6.370;2023-04-01T05:24:28;9.30;99.90
52509;DHT22;38420;53.150;6.370;2023-04-01T05:26:55;10.80;99.90
52509;DHT22;38420;53.150;6.370;2023-04-01T05:29:21;10.60;99.90
52509;DHT22;38420;53.150;6.370;2023-04-01T05:31:47;10.20;99.90
52509;DHT22;38420;53.150;6.370;2023-04-01T05:34:13;8.80;99.90
52509;DHT22;38420;53.150;6.370;2023-04-01T05:36:38;10.50;99.90
52509;DHT22;38420;53.150;6.370;2023-04-01T05:39:05;10.90;99.90
52509;DHT22;38420;53.150;6.370;2023-04-01T05:41:30;10.60;99.90
52509;DHT22;38420;53.150;6.370;2023-04-01T05:43:56;11.00;99.90
52509;DHT22;38420;53.150;6.370;2023-04-01T05:46:21;11.00;99.90
52509;DHT22;38420;53.150;6.370;2023-04-01T05:48:47;10.70;99.90
52509;DHT22;38420;53.150;6.370;2023-04-01T05:51:14;10.90;99.90
52509;DHT22;38420;53.150;6.370;2023-04-01T05:53:40;9.00;99.90
52509;DHT22;38420;53.150;6.370;2023-04-01T05:56:06;8.70;99.90
52509;DHT22;38420;53.150;6.370;2023-04-01T05:58:33;10.30;99.90
52509;DHT22;38420;53.150;6.370;2023-04-01T06:01:07;8.90;99.90
52509;DHT22;38420;53.150;6.370;2023-04-01T06:03:33;11.00;99.90
52509;DHT22;38420;53.150;6.370;2023-04-01T06:05:59;11.10;99.90
52509;DHT22;38420;53.150;6.370;2023-04-01T06:08:27;11.10;99.90
52509;DHT22;38420;53.150;6.370;2023-04-01T06:13:51;9.70;99.90
52509;DHT22;38420;53.150;6.370;2023-04-01T06:19:30;10.50;99.90
52509;DHT22;38420;53.150;6.370;2023-04-01T06:30:38;10.50;99.90
52509;DHT22;38420;53.150;6.370;2023-04-01T06:33:34;9.00;99.90
52509;DHT22;38420;53.150;6.370;2023-04-01T06:36:29;8.70;99.90
52509;DHT22;38420;53.150;6.370;2023-04-01T06:39:30;10.30;99.90
52509;DHT22;38420;53.150;6.370;2023-04-01T06:44:54;8.70;99.90
52509;DHT22;38420;53.150;6.370;2023-04-01T06:47:53;10.30;99.90
52509;DHT22;38420;53.150;6.370;2023-04-01T06:56:29;10.80;99.90
52509;DHT22;38420;53.150;6.370;2023-04-01T06:59:37;11.20;99.90
52509;DHT22;38420;53.150;6.370;2023-04-01T07:02:18;8.90;99.90
52509;DHT22;38420;53.150;6.370;2023-04-01T07:04:51;11.20;99.90
52509;DHT22;38420;53.150;6.370;2023-04-01T07:10:21;11.00;99.90
52509;DHT22;38420;53.150;6.370;2023-04-01T07:12:53;11.20;99.90
52509;DHT22;38420;53.150;6.370;2023-04-01T07:15:39;10.60;99.90
52509;DHT22;38420;53.150;6.370;2023-04-01T07:18:15;9.30;99.90
52509;DHT22;38420;53.150;6.370;2023-04-01T07:20:42;9.50;99.90
52509;DHT22;38420;53.150;6.370;2023-04-01T07:23:26;11.40;99.90
52509;DHT22;38420;53.150;6.370;2023-04-01T07:26:00;11.40;99.90
52509;DHT22;38420;53.150;6.370;2023-04-01T07:28:31;11.20;99.90
52509;DHT22;38420;53.150;6.370;2023-04-01T07:31:19;9.00;99.90
52509;DHT22;38420;53.150;6.370;2023-04-01T07:37:00;10.80;99.90
52509;DHT22;38420;53.150;6.370;2023-04-01T07:50:31;11.50;99.90
52509;DHT22;38420;53.150;6.370;2023-04-01T08:03:33;11.70;99.90
52509;DHT22;38420;53.150;6.370;2023-04-01T08:17:42;10.80;99.90
52509;DHT22;38420;53.150;6.370;2023-04-01T08:23:15;9.30;99.90
52509;DHT22;38420;53.150;6.370;2023-04-01T08:25:51;11.00;99.90
52509;DHT22;38420;53.150;6.370;2023-04-01T08:28:39;11.00;99.90
52509;DHT22;38420;53.150;6.370;2023-04-01T08:31:13;11.70;99.90
52509;DHT22;38420;53.150;6.370;2023-04-01T08:33:42;11.60;99.90
52509;DHT22;38420;53.150;6.370;2023-04-01T08:36:16;11.50;99.90
52509;DHT22;38420;53.150;6.370;2023-04-01T08:45:04;11.80;99.90
52509;DHT22;38420;53.150;6.370;2023-04-01T08:47:54;11.70;99.90
52509;DHT22;38420;53.150;6.370;2023-04-01T08:53:07;10.50;99.90
52509;DHT22;38420;53.150;6.370;2023-04-01T08:55:44;11.10;99.90
52509;DHT22;38420;53.150;6.370;2023-04-01T09:12:26;10.30;99.90
52509;DHT22;38420;53.150;6.370;2023-04-01T09:15:16;12.10;99.90
52509;DHT22;38420;53.150;6.370;2023-04-01T09:29:13;10.60;99.90
52509;DHT22;38420;53.150;6.370;2023-04-01T09:51:30;11.40;99.90
52509;DHT22;38420;53.150;6.370;2023-04-01T09:54:20;11.20;99.90
52509;DHT22;38420;53.150;6.370;2023-04-01T10:22:13;11.10;99.90
52509;DHT22;38420;53.150;6.370;2023-04-01T10:30:34;9.20;99.90
52509;DHT22;38420;53.150;6.370;2023-04-01T10:56:11;9.50;99.90
52509;DHT22;38420;53.150;6.370;2023-04-01T11:25:13;10.80;99.90
52509;DHT22;38420;53.150;6.370;2023-04-01T11:27:38;10.80;99.90
52509;DHT22;38420;53.150;6.370;2023-04-01T11:41:30;9.20;99.90
52509;DHT22;38420;53.150;6.370;2023-04-01T11:44:25;9.60;99.90
52509;DHT22;38420;53.150;6.370;2023-04-01T11:50:03;9.10;99.90
52509;DHT22;38420;53.150;6.370;2023-04-01T11:53:08;10.50;99.90
52509;DHT22;38420;53.150;6.370;2023-04-01T12:24:46;9.90;99.90
52509;DHT22;38420;53.150;6.370;2023-04-01T12:27:38;9.70;99.90
52509;DHT22;38420;53.150;6.370;2023-04-01T12:32:44;9.30;99.90
52509;DHT22;38420;53.150;6.370;2023-04-01T12:35:26;10.80;99.90
52509;DHT22;38420;53.150;6.370;2023-04-01T12:46:41;10.40;99.90
52509;DHT22;38420;53.150;6.370;2023-04-01T12:50:07;10.70;99.90
52509;DHT22;38420;53.150;6.370;2023-04-01T12:52:12;10.40;99.90
52509;DHT22;38420;53.150;6.370;2023-04-01T12:55:06;10.00;99.90
52509;DHT22;38420;53.150;6.370;2023-04-01T13:00:35;10.80;99.90
52509;DHT22;38420;53.150;6.370;2023-04-01T13:05:56;10.50;99.90
52509;DHT22;38420;53.150;6.370;2023-04-01T13:11:57;9.40;99.90
52509;DHT22;38420;53.150;6.370;2023-04-01T13:17:19;10.50;99.90
52509;DHT22;38420;53.150;6.370;2023-04-01T13:20:02;10.60;99.90
52509;DHT22;38420;53.150;6.370;2023-04-01T13:22:41;10.50;99.90
52509;DHT22;38420;53.150;6.370;2023-04-01T13:27:44;10.60;99.90
52509;DHT22;38420;53.150;6.370;2023-04-01T13:35:48;10.20;99.90
52509;DHT22;38420;53.150;6.370;2023-04-01T13:43:58;10.40;99.90
52509;DHT22;38420;53.150;6.370;2023-04-01T13:49:36;9.90;99.90
52509;DHT22;38420;53.150;6.370;2023-04-01T14:00:45;10.20;99.90
52509;DHT22;38420;53.150;6.370;2023-04-01T14:09:25;10.00;99.90
52509;DHT22;38420;53.150;6.370;2023-04-01T14:12:21;9.90;99.90
52509;DHT22;38420;53.150;6.370;2023-04-01T14:20:24;10.00;99.90
52509;DHT22;38420;53.150;6.370;2023-04-01T14:31:34;8.90;99.90
52509;DHT22;38420;53.150;6.370;2023-04-01T14:34:36;9.40;99.90
52509;DHT22;38420;53.150;6.370;2023-04-01T14:37:11;9.30;99.90
52509;DHT22;38420;53.150;6.370;2023-04-01T14:48:37;9.70;99.90
52509;DHT22;38420;53.150;6.370;2023-04-01T14:51:15;9.60;99.90
52509;DHT22;38420;53.150;6.370;2023-04-01T14:54:02;8.90;99.90
52509;DHT22;38420;53.150;6.370;2023-04-01T14:57:10;9.60;99.90
52509;DHT22;38420;53.150;6.370;2023-04-01T14:59:41;9.60;99.90
52509;DHT22;38420;53.150;6.370;2023-04-01T15:02:28;9.00;99.90
52509;DHT22;38420;53.150;6.370;2023-04-01T15:05:05;8.90;99.90
52509;DHT22;38420;53.150;6.370;2023-04-01T15:07:55;8.70;99.90
52509;DHT22;38420;53.150;6.370;2023-04-01T15:13:14;9.40;99.90
52509;DHT22;38420;53.150;6.370;2023-04-01T15:43:46;8.80;99.90
52509;DHT22;38420;53.150;6.370;2023-04-01T15:46:40;8.70;99.90
52509;DHT22;38420;53.150;6.370;2023-04-01T15:49:24;8.00;99.90
52509;DHT22;38420;53.150;6.370;2023-04-01T15:52:17;8.30;99.90
52509;DHT22;38420;53.150;6.370;2023-04-01T15:55:18;8.50;99.90
52509;DHT22;38420;53.150;6.370;2023-04-01T16:15:24;7.80;99.90
52509;DHT22;38420;53.150;6.370;2023-04-01T16:21:02;8.30;99.90
52509;DHT22;38420;53.150;6.370;2023-04-01T16:34:14;8.30;99.90
52509;DHT22;38420;53.150;6.370;2023-04-01T16:36:52;7.50;99.90
52509;DHT22;38420;53.150;6.370;2023-04-01T16:44:59;8.10;99.90
52509;DHT22;38420;53.150;6.370;2023-04-01T16:47:46;7.40;99.90
52509;DHT22;38420;53.150;6.370;2023-04-01T16:55:16;8.00;99.90
52509;DHT22;38420;53.150;6.370;2023-04-01T16:57:45;7.90;99.90
52509;DHT22;38420;53.150;6.370;2023-04-01T17:00:22;7.30;99.90
52509;DHT22;38420;53.150;6.370;2023-04-01T17:02:55;7.90;99.90
52509;DHT22;38420;53.150;6.370;2023-04-01T17:05:44;8.00;99.90
52509;DHT22;38420;53.150;6.370;2023-04-01T17:08:37;7.90;99.90
52509;DHT22;38420;53.150;6.370;2023-04-01T17:14:09;7.80;99.90
52509;DHT22;38420;53.150;6.370;2023-04-01T17:16:54;7.50;99.90
52509;DHT22;38420;53.150;6.370;2023-04-01T17:35:39;7.60;99.90
52509;DHT22;38420;53.150;6.370;2023-04-01T17:44:09;7.30;99.90
52509;DHT22;38420;53.150;6.370;2023-04-01T17:52:27;6.90;99.90
52509;DHT22;38420;53.150;6.370;2023-04-01T18:05:36;7.20;99.90
52509;DHT22;38420;53.150;6.370;2023-04-01T18:11:12;7.40;99.90
52509;DHT22;38420;53.150;6.370;2023-04-01T18:14:07;6.80;99.90
52509;DHT22;38420;53.150;6.370;2023-04-01T18:19:59;7.30;99.90
52509;DHT22;38420;53.150;6.370;2023-04-01T18:28:08;7.10;99.90
52509;DHT22;38420;53.150;6.370;2023-04-01T18:30:34;7.20;99.90
52509;DHT22;38420;53.150;6.370;2023-04-01T18:33:06;6.50;99.90
52509;DHT22;38420;53.150;6.370;2023-04-01T18:38:13;6.50;99.90
52509;DHT22;38420;53.150;6.370;2023-04-01T18:40:56;7.20;99.90
52509;DHT22;38420;53.150;6.370;2023-04-01T18:46:17;6.80;99.90
52509;DHT22;38420;53.150;6.370;2023-04-01T18:52:03;6.50;99.90
52509;DHT22;38420;53.150;6.370;2023-04-01T18:57:50;6.40;99.90
52509;DHT22;38420;53.150;6.370;2023-04-01T19:00:21;6.70;99.90
52509;DHT22;38420;53.150;6.370;2023-04-01T19:03:07;7.00;99.90
52509;DHT22;38420;53.150;6.370;2023-04-01T19:05:37;6.40;99.90
52509;DHT22;38420;53.150;6.370;2023-04-01T19:13:25;6.70;99.90
52509;DHT22;38420;53.150;6.370;2023-04-01T19:16:12;6.70;99.90
52509;DHT22;38420;53.150;6.370;2023-04-01T19:21:44;6.20;99.90
52509;DHT22;38420;53.150;6.370;2023-04-01T19:24:37;6.60;99.90
52509;DHT22;38420;53.150;6.370;2023-04-01T19:32:16;6.70;99.90
52509;DHT22;38420;53.150;6.370;2023-04-01T19:35:09;6.20;99.90
52509;DHT22;38420;53.150;6.370;2023-04-01T19:40:40;6.00;99.90
52509;DHT22;38420;53.150;6.370;2023-04-01T19:48:43;5.90;99.90
52509;DHT22;38420;53.150;6.370;2023-04-01T19:51:14;6.00;99.90
52509;DHT22;38420;53.150;6.370;2023-04-01T19:56:23;5.80;99.90
52509;DHT22;38420;53.150;6.370;2023-04-01T19:59:19;6.30;99.90
52509;DHT22;38420;53.150;6.370;2023-04-01T20:02:27;6.10;99.90
52509;DHT22;38420;53.150;6.370;2023-04-01T20:04:54;5.70;99.90
52509;DHT22;38420;53.150;6.370;2023-04-01T20:07:28;6.30;99.90
52509;DHT22;38420;53.150;6.370;2023-04-01T20:10:10;6.20;99.90
52509;DHT22;38420;53.150;6.370;2023-04-01T20:15:36;6.00;99.90
52509;DHT22;38420;53.150;6.370;2023-04-01T20:18:19;5.70;99.90
52509;DHT22;38420;53.150;6.370;2023-04-01T20:20:59;5.70;99.90
52509;DHT22;38420;53.150;6.370;2023-04-01T20:26:11;5.60;99.90
52509;DHT22;38420;53.150;6.370;2023-04-01T20:28:50;5.60;99.90
52509;DHT22;38420;53.150;6.370;2023-04-01T20:31:41;5.60;99.90
52509;DHT22;38420;53.150;6.370;2023-04-01T20:34:21;5.60;99.90
52509;DHT22;38420;53.150;6.370;2023-04-01T20:50:24;5.70;99.90
52509;DHT22;38420;53.150;6.370;2023-04-01T20:53:20;5.90;99.90
52509;DHT22;38420;53.150;6.370;2023-04-01T20:58:24;5.90;99.90
52509;DHT22;38420;53.150;6.370;2023-04-01T21:01:29;5.90;99.90
52509;DHT22;38420;53.150;6.370;2023-04-01T21:09:53;5.80;99.90
52509;DHT22;38420;53.150;6.370;2023-04-01T21:23:21;5.80;99.90
52509;DHT22;38420;53.150;6.370;2023-04-01T21:32:16;5.40;99.90
52509;DHT22;38420;53.150;6.370;2023-04-01T21:37:34;5.80;99.90
52509;DHT22;38420;53.150;6.370;2023-04-01T21:40:04;5.80;99.90
52509;DHT22;38420;53.150;6.370;2023-04-01T22:07:25;5.40;99.90
52509;DHT22;38420;53.150;6.370;2023-04-01T22:10:19;5.40;99.90
52509;DHT22;38420;53.150;6.370;2023-04-01T22:15:59;5.20;99.90
52509;DHT22;38420;53.150;6.370;2023-04-01T22:18:36;5.30;99.90
52509;DHT22;38420;53.150;6.370;2023-04-01T22:24:08;5.40;99.90
52509;DHT22;38420;53.150;6.370;2023-04-01T22:29:23;5.20;99.90
52509;DHT22;38420;53.150;6.370;2023-04-01T22:33:07;5.10;99.90
52509;DHT22;38420;53.150;6.370;2023-04-01T22:40:14;5.30;99.90
52509;DHT22;38420;53.150;6.370;2023-04-01T22:48:14;5.20;99.90
52509;DHT22;38420;53.150;6.370;2023-04-01T22:50:55;5.20;99.90
52509;DHT22;38420;53.150;6.370;2023-04-01T22:56:37;5.30;99.90
52509;DHT22;38420;53.150;6.370;2023-04-01T22:59:14;4.90;99.90
52509;DHT22;38420;53.150;6.370;2023-04-01T23:01:49;5.20;99.90
52509;DHT22;38420;53.150;6.370;2023-04-01T23:04:23;4.90;99.90
52509;DHT22;38420;53.150;6.370;2023-04-01T23:06:53;4.70;99.90
52509;DHT22;38420;53.150;6.370;2023-04-01T23:09:28;5.00;99.90
52509;DHT22;38420;53.150;6.370;2023-04-01T23:25:36;4.60;99.90
52509;DHT22;38420;53.150;6.370;2023-04-01T23:33:21;4.50;99.90
52509;DHT22;38420;53.150;6.370;2023-04-01T23:35:54;4.70;99.90
52509;DHT22;38420;53.150;6.370;2023-04-01T23:38:23;4.50;99.90
52509;DHT22;38420;53.150;6.370;2023-04-01T23:40:51;4.40;99.90
52509;DHT22;38420;53.150;6.370;2023-04-01T23:43:38;4.30;99.90
52509;DHT22;38420;53.150;6.370;2023-04-01T23:46:06;4.60;99.90
52509;DHT22;38420;53.150;6.370;2023-04-01T23:48:33;4.40;99.90
52509;DHT22;38420;53.150;6.370;2023-04-01T23:51:01;4.50;99.90
52509;DHT22;38420;53.150;6.370;2023-04-01T23:53:30;4.30;99.90
52509;DHT22;38420;53.150;6.370;2023-04-01T23:55:58;4.20;99.90
52509;DHT22;38420;53.150;6.370;2023-04-01T23:58:44;4.50;99.90
